createdAt,value
2023-01-28T00:11:04.901Z,1.93
2023-01-28T00:26:12.574Z,1.89
2023-01-28T00:41:19.238Z,1.80
2023-01-28T00:56:22.525Z,1.80
2023-01-28T01:11:27.050Z,1.80
2023-01-28T01:26:30.373Z,1.80
2023-01-28T01:41:34.229Z,1.77
2023-01-28T01:56:43.305Z,1.74
2023-01-28T02:11:46.796Z,1.71
2023-01-28T02:27:08.170Z,1.75
2023-01-28T02:42:18.144Z,1.71
2023-01-28T02:57:38.522Z,1.70
2023-01-28T03:13:02.800Z,1.71
2023-01-28T03:28:30.177Z,1.65
2023-01-28T03:43:35.813Z,1.58
2023-01-28T03:58:56.877Z,1.63
2023-01-28T04:14:00.306Z,1.62
2023-01-28T04:29:11.108Z,1.63
2023-01-28T04:44:17.391Z,1.70
2023-01-28T04:59:46.876Z,1.75
2023-01-28T05:14:51.650Z,1.82
2023-01-28T05:29:57.231Z,1.81
2023-01-28T05:45:01.182Z,1.81
2023-01-28T06:00:17.026Z,1.81
2023-01-28T06:15:21.674Z,1.82
2023-01-28T06:30:37.997Z,1.83
2023-01-28T06:45:41.272Z,1.83
2023-01-28T07:00:44.666Z,1.81
2023-01-28T07:15:49.227Z,1.88
2023-01-28T07:30:53.681Z,1.96
2023-01-28T07:46:00.730Z,1.96
2023-01-28T08:01:04.588Z,1.99
2023-01-28T08:16:08.354Z,2.09
2023-01-28T08:31:11.809Z,2.22
2023-01-28T08:46:15.614Z,2.36
2023-01-28T09:01:18.967Z,2.49
2023-01-28T09:16:22.686Z,2.63
2023-01-28T09:31:26.313Z,2.71
2023-01-28T09:46:34.354Z,2.92
2023-01-28T10:01:53.278Z,3.11
2023-01-28T10:17:26.778Z,3.26
2023-01-28T10:32:35.895Z,3.40
2023-01-28T10:47:44.148Z,3.51
2023-01-28T11:02:49.802Z,3.54
2023-01-28T11:18:11.296Z,3.61
2023-01-28T11:33:18.999Z,3.75
2023-01-28T11:48:41.263Z,3.69
2023-01-28T12:04:15.864Z,3.74
2023-01-28T12:19:34.078Z,3.74
2023-01-28T12:35:11.268Z,3.63
2023-01-28T12:50:26.029Z,3.69
2023-01-28T13:05:38.103Z,3.57
2023-01-28T13:20:49.034Z,3.56
2023-01-28T13:35:55.619Z,3.29
2023-01-28T13:51:01.169Z,3.14
2023-01-28T14:06:04.329Z,2.89
2023-01-28T14:21:17.565Z,2.69
2023-01-28T14:36:21.241Z,2.76
2023-01-28T14:51:43.015Z,2.63
2023-01-28T15:06:49.022Z,2.42
2023-01-28T15:22:04.565Z,2.15
2023-01-28T15:37:11.336Z,2.03
2023-01-28T15:52:15.417Z,1.87
2023-01-28T16:07:19.492Z,1.73
2023-01-28T16:22:33.523Z,1.67
2023-01-28T16:37:39.343Z,1.70
2023-01-28T16:52:46.532Z,1.55
2023-01-28T17:07:50.561Z,1.64
2023-01-28T17:22:54.915Z,1.75
2023-01-28T17:37:58.229Z,1.62
2023-01-28T17:53:01.467Z,1.53
2023-01-28T18:08:05.033Z,1.46
2023-01-28T18:23:12.343Z,1.45
2023-01-28T18:38:18.480Z,1.39
2023-01-28T18:53:26.383Z,1.29
2023-01-28T19:08:34.513Z,1.21
2023-01-28T19:23:49.510Z,1.13
2023-01-28T19:38:57.945Z,0.97
2023-01-28T19:54:01.379Z,0.81
2023-01-28T20:09:08.208Z,0.79
2023-01-28T20:24:13.418Z,0.80
2023-01-28T20:39:17.845Z,0.82
2023-01-28T20:54:21.764Z,0.82
2023-01-28T21:09:26.170Z,0.92
2023-01-28T21:24:32.440Z,1.02
2023-01-28T21:39:39.517Z,0.94
2023-01-28T21:54:43.022Z,0.95
2023-01-28T22:09:47.835Z,1.00
2023-01-28T22:24:51.636Z,0.99
2023-01-28T22:39:56.219Z,1.06
2023-01-28T22:54:59.618Z,1.12
2023-01-28T23:10:04.086Z,1.01
2023-01-28T23:25:08.176Z,0.92
2023-01-28T23:40:12.860Z,0.97
2023-01-28T23:55:16.272Z,1.06
